Terminal Aerodrome Forecast
Issued by NWS Greer, SC

Home | Current Version | Previous Version | Text Only | Print | Product List | Glossary On
Versions: 1 2 3 4 5 6 7 8 9 10 11 12 13 14 15 16 17 18 19 20 21 22 23 24 25 26 27 28 29
000
FTUS42 KGSP 312335
TAFAVL
TAF
KAVL 312335Z 0100/0124 VRB03KT P6SM BKN050
     FM010700 00000KT 5SM BR BKN035
     FM010900 00000KT 3SM BR OVC005
      TEMPO 0110/0113 1SM BR OVC002
     FM011400 35005KT P6SM SCT035
     FM012000 21006KT P6SM BKN050=

USA.gov is the U.S. government's official web portal to all federal, state and local government web resources and services.